Time;durP1;ratioP1;P1;durP2;ratioP2;P2;SDS_P1;SDS_P2;PMS_P1;PMS_P2;Temp;Humidity;BMP_temperature;BMP_pressure;BME280_temperature;BME280_humidity;BME280_pressure;Samples;Min_cycle;Max_cycle;Signal;HPM_P1;HPM_P2
2021/12/11 00:02:18;;;;;;;109.20;42.60;;;-1.80;99.90;;;;;;5074016;28;20184;-80
2021/12/11 00:04:49;;;;;;;131.07;43.63;;;-1.90;99.90;;;;;;5074337;28;20226;-78
2021/12/11 00:07:19;;;;;;;116.70;43.90;;;-1.90;99.90;;;;;;5073909;28;20606;-80
2021/12/11 00:09:50;;;;;;;116.20;42.53;;;-1.90;99.90;;;;;;5073641;28;20176;-80
2021/12/11 00:12:20;;;;;;;124.83;44.50;;;-1.90;99.90;;;;;;5074126;28;20184;-80
2021/12/11 00:14:52;;;;;;;112.10;39.50;;;-2.00;99.90;;;;;;5074040;28;20695;-80
2021/12/11 00:17:22;;;;;;;124.17;44.03;;;-2.00;99.90;;;;;;5073577;28;20180;-79
2021/12/11 00:19:49;;;;;;;120.10;43.50;;;-2.00;99.90;;;;;;5073254;28;20192;-80
2021/12/11 00:22:20;;;;;;;115.83;41.07;;;-2.00;99.90;;;;;;5073968;28;20246;-79
2021/12/11 00:24:48;;;;;;;122.00;42.03;;;-2.00;99.90;;;;;;5073613;28;20180;-80
2021/12/11 00:27:19;;;;;;;106.43;38.57;;;-2.10;99.90;;;;;;5073362;28;20245;-79
2021/12/11 00:29:46;;;;;;;119.73;41.83;;;-2.10;99.90;;;;;;5073817;28;20288;-79
2021/12/11 00:32:20;;;;;;;119.53;44.33;;;-2.10;99.90;;;;;;5073655;28;20216;-78
2021/12/11 00:34:47;;;;;;;114.40;41.93;;;-2.20;99.90;;;;;;5073759;28;20184;-80
2021/12/11 00:37:17;;;;;;;125.40;44.37;;;-2.20;99.90;;;;;;5073635;28;20192;-79
2021/12/11 00:39:49;;;;;;;118.13;43.33;;;-2.20;99.90;;;;;;5073265;28;20255;-80
2021/12/11 00:42:17;;;;;;;129.57;43.73;;;-2.20;99.90;;;;;;5073200;28;20188;-79
2021/12/11 00:44:47;;;;;;;115.20;43.23;;;-2.20;99.90;;;;;;5073456;28;20245;-80
2021/12/11 00:47:15;;;;;;;129.03;43.53;;;-2.20;99.90;;;;;;5073124;28;20652;-81
2021/12/11 00:49:49;;;;;;;126.70;43.83;;;-2.20;99.90;;;;;;5072870;28;20721;-80
2021/12/11 00:52:16;;;;;;;126.67;43.80;;;-2.20;99.90;;;;;;5073355;28;20208;-80
2021/12/11 00:54:45;;;;;;;133.23;45.00;;;-2.10;99.90;;;;;;5073219;28;20249;-80
2021/12/11 00:57:20;;;;;;;134.70;45.07;;;-2.10;99.90;;;;;;5073146;28;20196;-81
2021/12/11 00:59:47;;;;;;;143.07;45.47;;;-2.00;99.90;;;;;;5072927;28;20690;-80
2021/12/11 01:02:14;;;;;;;134.13;44.93;;;-1.90;99.90;;;;;;5073077;28;20195;-79
2021/12/11 01:04:42;;;;;;;131.27;45.57;;;-1.90;99.90;;;;;;5073099;28;20192;-80
2021/12/11 01:07:17;;;;;;;129.43;45.13;;;-1.80;99.90;;;;;;5072893;28;20257;-81
2021/12/11 01:09:50;;;;;;;139.17;45.57;;;-1.80;99.90;;;;;;5072723;28;20180;-80
2021/12/11 01:12:24;;;;;;;123.50;44.43;;;-1.80;99.90;;;;;;5072971;28;20262;-79
2021/12/11 01:14:56;;;;;;;131.83;44.73;;;-1.70;99.90;;;;;;5072619;28;20223;-79
2021/12/11 01:17:37;;;;;;;129.07;42.53;;;-1.70;99.90;;;;;;5072544;28;20271;-79
2021/12/11 01:20:08;;;;;;;120.40;42.80;;;-1.70;99.90;;;;;;5073264;28;20206;-79
2021/12/11 01:22:37;;;;;;;123.33;41.37;;;-1.70;99.90;;;;;;5073198;28;20180;-79
2021/12/11 01:25:09;;;;;;;124.13;44.37;;;-1.70;99.90;;;;;;5073042;28;20192;-81
2021/12/11 01:27:41;;;;;;;128.10;44.70;;;-1.70;99.90;;;;;;5072165;28;20625;-79
2021/12/11 01:30:12;;;;;;;134.17;43.67;;;-1.70;99.90;;;;;;5072876;28;20180;-80
2021/12/11 01:32:40;;;;;;;128.37;42.43;;;-1.70;99.90;;;;;;5072281;28;20230;-81
2021/12/11 01:35:10;;;;;;;131.70;43.87;;;-1.70;99.90;;;;;;5072656;28;20195;-81
2021/12/11 01:37:39;;;;;;;127.53;44.13;;;-1.60;99.90;;;;;;5072798;28;20188;-80
2021/12/11 01:40:09;;;;;;;117.03;43.10;;;-1.60;99.90;;;;;;5074021;28;20652;-80
2021/12/11 01:42:39;;;;;;;127.33;42.03;;;-1.70;99.90;;;;;;5093118;28;20266;-80
2021/12/11 01:45:11;;;;;;;126.80;43.37;;;-1.70;99.90;;;;;;5110006;28;20182;-80
2021/12/11 01:47:41;;;;;;;125.77;43.07;;;-1.70;99.90;;;;;;5113185;28;20182;-80
2021/12/11 01:50:17;;;;;;;124.37;41.07;;;-1.70;99.90;;;;;;5113125;28;20237;-80
2021/12/11 01:52:48;;;;;;;111.53;41.13;;;-1.70;99.90;;;;;;5112683;28;20729;-81
2021/12/11 01:55:22;;;;;;;131.20;42.80;;;-1.70;99.90;;;;;;5112657;28;20714;-80
2021/12/11 01:57:54;;;;;;;109.67;41.43;;;-1.70;99.90;;;;;;5113014;28;20192;-81
2021/12/11 02:00:27;;;;;;;105.83;41.03;;;-1.70;99.90;;;;;;5113027;28;20179;-80
2021/12/11 02:02:57;;;;;;;126.43;43.47;;;-1.70;99.90;;;;;;5113020;28;20174;-80
2021/12/11 02:05:28;;;;;;;121.90;43.03;;;-1.80;99.90;;;;;;5112798;28;20544;-81
2021/12/11 02:08:00;;;;;;;120.03;42.10;;;-1.80;99.90;;;;;;5112642;28;20582;-78
2021/12/11 02:10:32;;;;;;;117.37;41.57;;;-1.80;99.90;;;;;;5112026;28;20193;-81
2021/12/11 02:13:01;;;;;;;124.83;42.60;;;-1.80;99.90;;;;;;5112610;28;20183;-80
2021/12/11 02:15:34;;;;;;;117.90;41.00;;;-1.80;99.90;;;;;;5112606;28;20182;-81
2021/12/11 02:18:10;;;;;;;130.47;41.73;;;-1.80;99.90;;;;;;5112282;28;20186;-80
2021/12/11 02:20:41;;;;;;;124.23;42.00;;;-1.70;99.90;;;;;;5112744;28;20217;-81
2021/12/11 02:23:10;;;;;;;123.90;42.00;;;-1.70;99.90;;;;;;5112726;28;20639;-80
2021/12/11 02:25:41;;;;;;;133.53;43.17;;;-1.70;99.90;;;;;;5112970;28;20194;-81
2021/12/11 02:28:13;;;;;;;129.27;41.60;;;-1.70;99.90;;;;;;5113161;28;20220;-81
2021/12/11 02:30:44;;;;;;;134.87;42.47;;;-1.60;99.90;;;;;;5112508;28;20710;-80
2021/12/11 02:33:15;;;;;;;137.53;43.50;;;-1.60;99.90;;;;;;5112386;28;20175;-80
2021/12/11 02:35:46;;;;;;;136.03;44.27;;;-1.60;99.90;;;;;;5112707;28;20252;-80
2021/12/11 02:38:20;;;;;;;129.70;42.13;;;-1.60;99.90;;;;;;5111616;28;20646;-81
2021/12/11 02:40:50;;;;;;;111.90;41.07;;;-1.50;99.90;;;;;;5115397;28;20226;-81
2021/12/11 02:43:23;;;;;;;124.07;42.57;;;-1.50;99.90;;;;;;5116464;28;20187;-80
2021/12/11 02:45:56;;;;;;;132.33;41.10;;;-1.50;99.90;;;;;;5116538;28;20575;-81
2021/12/11 02:48:26;;;;;;;122.90;41.90;;;-1.50;99.90;;;;;;5116417;28;20243;-81
2021/12/11 02:50:57;;;;;;;126.10;42.17;;;-1.50;99.90;;;;;;5116432;28;20175;-81
2021/12/11 02:53:30;;;;;;;133.00;41.67;;;-1.50;99.90;;;;;;5115931;28;20700;-80
2021/12/11 02:56:00;;;;;;;135.17;41.67;;;-1.50;99.90;;;;;;5116350;28;20178;-81
2021/12/11 02:58:32;;;;;;;138.43;42.37;;;-1.40;99.90;;;;;;5115872;28;20179;-81
2021/12/11 03:01:04;;;;;;;99.43;35.77;;;-1.50;99.90;;;;;;5116215;28;20186;-81
2021/12/11 03:03:36;;;;;;;111.93;35.50;;;-1.40;99.90;;;;;;5116169;28;20187;-80
2021/12/11 03:06:13;;;;;;;101.07;33.40;;;-1.40;99.90;;;;;;5116100;28;20182;-80
2021/12/11 03:08:43;;;;;;;87.33;32.53;;;-1.40;99.90;;;;;;5115570;28;20240;-80
2021/12/11 03:11:13;;;;;;;88.97;30.53;;;-1.40;99.90;;;;;;5115528;28;20207;-81
2021/12/11 03:13:41;;;;;;;94.20;29.37;;;-1.40;99.90;;;;;;5115748;28;20712;-81
2021/12/11 03:16:09;;;;;;;94.07;31.80;;;-1.30;99.90;;;;;;5115851;28;20195;-81
2021/12/11 03:18:37;;;;;;;98.40;34.07;;;-1.40;99.90;;;;;;5115262;28;20716;-81
2021/12/11 03:21:05;;;;;;;112.10;35.93;;;-1.30;99.90;;;;;;5111680;28;20190;-80
2021/12/11 03:23:32;;;;;;;101.40;34.83;;;-1.40;99.90;;;;;;5115371;28;20681;-80
2021/12/11 03:26:01;;;;;;;111.13;39.47;;;-1.40;99.90;;;;;;5115293;28;20206;-81
2021/12/11 03:28:28;;;;;;;96.73;33.70;;;-1.40;99.90;;;;;;5115321;28;20256;-81
2021/12/11 03:30:59;;;;;;;109.43;35.90;;;-1.40;99.90;;;;;;5115166;28;20205;-80
2021/12/11 03:33:31;;;;;;;113.63;39.03;;;-1.30;99.90;;;;;;5115286;28;20541;-81
2021/12/11 03:35:59;;;;;;;110.30;38.47;;;-1.40;99.90;;;;;;5115569;28;20187;-79
2021/12/11 03:38:27;;;;;;;122.77;39.70;;;-1.40;99.90;;;;;;5114374;28;20187;-81
2021/12/11 03:40:55;;;;;;;114.57;39.90;;;-1.40;99.90;;;;;;5115172;28;20222;-80
2021/12/11 03:43:25;;;;;;;112.30;38.93;;;-1.30;99.90;;;;;;5114982;28;20194;-81
2021/12/11 03:45:56;;;;;;;128.20;40.63;;;-1.40;99.90;;;;;;5115548;28;20205;-80
2021/12/11 03:48:26;;;;;;;123.53;40.33;;;-1.30;99.90;;;;;;5115121;28;20251;-81
2021/12/11 03:50:54;;;;;;;118.23;38.67;;;-1.30;99.90;;;;;;5114324;28;20252;-80
2021/12/11 03:53:22;;;;;;;125.50;41.80;;;-1.30;99.90;;;;;;5114665;28;20679;-81
2021/12/11 03:55:53;;;;;;;127.70;41.77;;;-1.30;99.90;;;;;;5114710;28;20198;-81
2021/12/11 03:58:21;;;;;;;129.77;42.27;;;-1.30;99.90;;;;;;5114940;28;20199;-81
2021/12/11 04:00:56;;;;;;;120.37;40.53;;;-1.30;99.90;;;;;;5114653;28;20191;-81
2021/12/11 04:03:27;;;;;;;130.10;41.97;;;-1.30;99.90;;;;;;5114072;28;20186;-81
2021/12/11 04:05:56;;;;;;;121.80;40.53;;;-1.30;99.90;;;;;;5114651;28;20618;-80
2021/12/11 04:08:30;;;;;;;136.53;41.67;;;-1.30;99.90;;;;;;5112848;28;20511;-80
2021/12/11 04:10:58;;;;;;;133.53;42.70;;;-1.30;99.90;;;;;;5116912;27;20185;-79
2021/12/11 04:13:26;;;;;;;140.00;43.63;;;-1.30;99.90;;;;;;5122528;27;20221;-78
2021/12/11 04:15:55;;;;;;;132.97;41.67;;;-1.30;99.90;;;;;;5119390;27;20186;-79
2021/12/11 04:18:23;;;;;;;136.63;42.87;;;-1.30;99.90;;;;;;5116621;27;20301;-79
2021/12/11 04:20:51;;;;;;;139.77;42.30;;;-1.30;99.90;;;;;;5113159;28;20186;-80
2021/12/11 04:23:20;;;;;;;129.50;42.63;;;-1.30;99.90;;;;;;5112738;28;20647;-80
2021/12/11 04:25:52;;;;;;;148.80;44.80;;;-1.30;99.90;;;;;;5113066;28;20183;-80
2021/12/11 04:28:21;;;;;;;191.10;45.17;;;-1.30;99.90;;;;;;5109098;28;20183;-81
2021/12/11 04:30:50;;;;;;;149.00;43.13;;;-1.30;99.90;;;;;;5112529;28;20663;-81
2021/12/11 04:33:19;;;;;;;171.83;41.67;;;-1.30;99.90;;;;;;5112684;28;20238;-79
2021/12/11 04:35:47;;;;;;;148.67;41.93;;;-1.40;99.90;;;;;;5113170;28;20251;-79
2021/12/11 04:38:15;;;;;;;149.67;42.20;;;-1.30;99.90;;;;;;5113304;28;20183;-78
2021/12/11 04:40:51;;;;;;;151.93;43.60;;;-1.40;99.90;;;;;;5112587;28;20694;-80
2021/12/11 04:43:22;;;;;;;152.97;41.10;;;-1.40;99.90;;;;;;5112785;28;20194;-79
2021/12/11 04:45:54;;;;;;;185.60;42.73;;;-1.40;99.90;;;;;;5112713;28;20179;-79
2021/12/11 04:48:33;;;;;;;150.63;41.80;;;-1.50;99.90;;;;;;5112317;28;20688;-79
2021/12/11 04:51:10;;;;;;;172.67;42.77;;;-1.40;99.90;;;;;;5112561;28;20183;-79
2021/12/11 04:53:50;;;;;;;156.17;40.73;;;-1.40;99.90;;;;;;5112281;28;20263;-79
2021/12/11 04:56:46;;;;;;;164.87;41.37;;;-1.40;99.90;;;;;;5113077;27;20529;-79
2021/12/11 04:59:34;;;;;;;155.53;41.37;;;-1.40;99.90;;;;;;5113011;28;20183;-79
2021/12/11 05:02:18;;;;;;;152.80;39.10;;;-1.50;99.90;;;;;;5111730;28;20555;-80
2021/12/11 05:08:37;;;;;;;121.40;34.87;;;-1.50;99.90;;;;;;5109937;28;20183;-80
2021/12/11 05:11:10;;;;;;;127.70;29.13;;;-1.60;99.90;;;;;;5111922;28;20190;-81
2021/12/11 05:13:37;;;;;;;149.47;34.63;;;-1.50;99.90;;;;;;5111788;28;20688;-80
2021/12/11 05:16:07;;;;;;;142.27;33.67;;;-1.50;99.90;;;;;;5111769;28;20187;-80
2021/12/11 05:18:44;;;;;;;223.60;35.00;;;-1.50;99.90;;;;;;5112191;28;20647;-80
2021/12/11 05:21:15;;;;;;;142.33;32.17;;;-1.50;99.90;;;;;;5112087;28;20178;-80
2021/12/11 05:23:44;;;;;;;129.13;35.97;;;-1.50;99.90;;;;;;5111750;28;20179;-80
2021/12/11 05:26:12;;;;;;;187.93;40.00;;;-1.40;99.90;;;;;;5107600;28;20239;-80
2021/12/11 05:28:40;;;;;;;142.07;39.47;;;-1.40;99.90;;;;;;5111582;28;20190;-80
2021/12/11 05:31:09;;;;;;;172.00;36.83;;;-1.40;99.90;;;;;;5111881;28;20597;-80
2021/12/11 05:33:37;;;;;;;171.47;38.43;;;-1.40;99.90;;;;;;5111447;28;20686;-80
2021/12/11 05:36:07;;;;;;;178.00;39.03;;;-1.40;99.90;;;;;;5111613;28;20240;-79
2021/12/11 05:38:39;;;;;;;121.57;33.80;;;-1.30;99.90;;;;;;5111462;28;20194;-80
2021/12/11 05:41:10;;;;;;;136.67;35.63;;;-1.30;99.90;;;;;;5111566;28;20223;-80
2021/12/11 05:43:39;;;;;;;159.60;36.73;;;-1.40;99.90;;;;;;5111464;28;20632;-80
2021/12/11 05:46:08;;;;;;;154.77;36.70;;;-1.30;99.90;;;;;;5111706;28;20186;-80
2021/12/11 05:48:35;;;;;;;205.33;35.93;;;-1.30;99.90;;;;;;5111683;28;20194;-80
2021/12/11 05:51:05;;;;;;;252.20;33.33;;;-1.40;99.90;;;;;;5111368;28;20179;-81
2021/12/11 05:53:34;;;;;;;295.37;39.57;;;-1.40;99.90;;;;;;5111125;28;20219;-80
2021/12/11 05:56:06;;;;;;;280.27;38.20;;;-1.40;99.90;;;;;;5111390;28;20189;-79
2021/12/11 05:58:47;;;;;;;237.37;34.67;;;-1.40;99.90;;;;;;5111299;28;20178;-79
2021/12/11 06:01:17;;;;;;;131.63;28.77;;;-1.40;99.90;;;;;;5111477;28;20178;-80
2021/12/11 06:03:45;;;;;;;307.37;40.87;;;-1.40;99.90;;;;;;5111749;28;20182;-79
2021/12/11 06:06:13;;;;;;;183.30;34.13;;;-1.40;99.90;;;;;;5111475;28;20182;-79
2021/12/11 06:08:42;;;;;;;137.67;35.13;;;-1.40;99.90;;;;;;5111694;28;20198;-80
2021/12/11 06:11:12;;;;;;;176.40;38.17;;;-1.50;99.90;;;;;;5111948;28;20194;-80
2021/12/11 06:13:40;;;;;;;222.63;41.10;;;-1.50;99.90;;;;;;5112079;28;20502;-80
2021/12/11 06:16:11;;;;;;;250.10;38.77;;;-1.40;99.90;;;;;;5115573;28;20182;-81
2021/12/11 06:18:39;;;;;;;236.50;36.03;;;-1.50;99.90;;;;;;5115272;28;20183;-79
2021/12/11 06:21:11;;;;;;;211.83;35.03;;;-1.50;99.90;;;;;;5115159;28;20646;-79
2021/12/11 06:23:38;;;;;;;152.60;32.67;;;-1.60;99.90;;;;;;5112342;28;20573;-79
2021/12/11 06:26:06;;;;;;;294.40;48.00;;;-1.60;99.90;;;;;;5115425;28;20194;-79
2021/12/11 06:28:34;;;;;;;259.57;44.20;;;-1.60;99.90;;;;;;5114979;28;20647;-79
2021/12/11 06:31:03;;;;;;;209.93;49.73;;;-1.60;99.90;;;;;;5115300;28;20182;-79
2021/12/11 06:33:33;;;;;;;244.77;40.17;;;-1.60;99.90;;;;;;5115336;28;20334;-79
2021/12/11 06:36:03;;;;;;;192.57;39.03;;;-1.60;99.90;;;;;;5096027;28;20207;-79
2021/12/11 06:38:34;;;;;;;346.37;44.53;;;-1.60;99.90;;;;;;5096281;28;20244;-79
2021/12/11 06:41:01;;;;;;;274.50;60.67;;;-1.60;99.90;;;;;;5107328;28;20275;-79
2021/12/11 06:43:29;;;;;;;224.47;44.33;;;-1.60;99.90;;;;;;5116109;28;20647;-79
2021/12/11 06:45:56;;;;;;;234.83;48.23;;;-1.60;99.90;;;;;;5115998;28;20243;-79
2021/12/11 06:48:30;;;;;;;252.13;44.03;;;-1.70;99.90;;;;;;5116057;28;20248;-80
2021/12/11 06:50:58;;;;;;;254.97;44.97;;;-1.60;99.90;;;;;;5116477;28;20179;-79
2021/12/11 06:53:38;;;;;;;223.23;39.17;;;-1.60;99.90;;;;;;5116314;28;20290;-79
2021/12/11 06:56:07;;;;;;;205.47;36.83;;;-1.60;99.90;;;;;;5115642;28;20545;-78
2021/12/11 06:58:34;;;;;;;214.37;37.60;;;-1.60;99.90;;;;;;5115866;28;20191;-79
2021/12/11 07:01:02;;;;;;;342.77;42.30;;;-1.70;99.90;;;;;;5115822;28;20194;-80
2021/12/11 07:03:31;;;;;;;238.97;37.57;;;-1.70;99.90;;;;;;5116127;28;20191;-79
2021/12/11 07:05:58;;;;;;;222.60;41.83;;;-1.70;99.90;;;;;;5117042;27;20232;-79
2021/12/11 07:08:27;;;;;;;267.80;38.87;;;-1.70;99.90;;;;;;5136560;27;20254;-79
2021/12/11 07:10:55;;;;;;;215.83;39.17;;;-1.70;99.90;;;;;;5123438;27;20659;-79
2021/12/11 07:13:22;;;;;;;206.53;37.20;;;-1.70;99.90;;;;;;5115600;28;20214;-79
2021/12/11 07:15:51;;;;;;;225.07;39.63;;;-1.70;99.90;;;;;;5116239;28;20244;-79
2021/12/11 07:18:18;;;;;;;318.07;60.00;;;-1.70;99.90;;;;;;5116272;28;20187;-79
2021/12/11 07:20:46;;;;;;;337.33;93.87;;;-1.70;99.90;;;;;;5115494;28;20252;-79
2021/12/11 07:23:13;;;;;;;284.87;46.67;;;-1.70;99.90;;;;;;5115337;28;20206;-79
2021/12/11 07:25:47;;;;;;;299.83;49.70;;;-1.70;99.90;;;;;;5114777;28;20278;-79
2021/12/11 07:28:15;;;;;;;258.33;45.83;;;-1.60;99.90;;;;;;5115682;28;20247;-79
2021/12/11 07:30:47;;;;;;;275.27;37.30;;;-1.60;99.90;;;;;;5115344;28;20218;-79
2021/12/11 07:33:15;;;;;;;277.00;49.03;;;-1.60;99.90;;;;;;5115170;28;20218;-79
2021/12/11 07:35:44;;;;;;;379.17;45.77;;;-1.60;99.90;;;;;;5115612;28;20551;-79
2021/12/11 07:38:12;;;;;;;305.47;39.90;;;-1.60;99.90;;;;;;5115120;28;20323;-79
2021/12/11 07:40:44;;;;;;;216.50;38.33;;;-1.50;99.90;;;;;;5115269;28;20229;-79
2021/12/11 07:43:12;;;;;;;243.67;46.43;;;-1.50;99.90;;;;;;5115019;28;20635;-79
2021/12/11 07:45:40;;;;;;;253.17;53.77;;;-1.40;99.90;;;;;;5115300;28;20247;-79
2021/12/11 07:48:10;;;;;;;237.30;40.53;;;-1.40;99.90;;;;;;5114863;28;20236;-79
2021/12/11 07:50:38;;;;;;;229.73;43.53;;;-1.30;99.90;;;;;;5115188;28;20187;-79
2021/12/11 07:53:06;;;;;;;214.87;45.00;;;-1.20;99.90;;;;;;5115076;28;20266;-79
2021/12/11 07:55:35;;;;;;;269.13;39.77;;;-1.20;99.90;;;;;;5115238;28;20191;-79
2021/12/11 07:58:03;;;;;;;230.50;35.70;;;-1.20;99.90;;;;;;5115024;28;20190;-79
2021/12/11 08:00:31;;;;;;;304.07;37.80;;;-1.20;99.90;;;;;;5114653;28;20659;-79
2021/12/11 08:02:58;;;;;;;242.17;36.33;;;-1.10;99.90;;;;;;5115062;28;20244;-79
2021/12/11 08:05:30;;;;;;;245.73;37.33;;;-1.10;99.90;;;;;;5114853;28;20282;-79
2021/12/11 08:08:00;;;;;;;163.13;40.27;;;-1.00;99.90;;;;;;5114874;28;20244;-79
2021/12/11 08:10:28;;;;;;;208.77;48.63;;;-1.00;99.90;;;;;;5114590;28;20620;-79
2021/12/11 08:12:57;;;;;;;289.07;40.10;;;-0.90;99.90;;;;;;5115077;28;20259;-79
2021/12/11 08:15:24;;;;;;;231.93;36.47;;;-0.80;99.90;;;;;;5114693;27;20628;-80
2021/12/11 08:17:54;;;;;;;159.43;33.93;;;-0.70;99.90;;;;;;5114631;28;20191;-78
2021/12/11 08:20:23;;;;;;;212.27;36.87;;;-0.70;99.90;;;;;;5114176;28;20198;-79
2021/12/11 08:22:51;;;;;;;150.40;34.00;;;-0.60;99.90;;;;;;5112995;28;20667;-79
2021/12/11 08:25:19;;;;;;;151.90;34.73;;;-0.40;99.90;;;;;;5114341;28;20202;-79
2021/12/11 08:27:47;;;;;;;162.87;34.63;;;-0.40;99.90;;;;;;5114521;28;20194;-79
2021/12/11 08:30:16;;;;;;;102.87;31.23;;;-0.30;99.90;;;;;;5113888;28;20220;-80
2021/12/11 08:32:43;;;;;;;136.23;37.33;;;-0.20;99.90;;;;;;5114330;28;20191;-79
2021/12/11 08:35:13;;;;;;;146.47;37.33;;;-0.10;99.90;;;;;;5114388;28;20413;-79
2021/12/11 08:37:41;;;;;;;131.77;36.60;;;0.00;99.90;;;;;;5114147;28;20186;-79
2021/12/11 08:40:14;;;;;;;135.77;44.67;;;0.10;99.90;;;;;;5113685;28;20642;-79
2021/12/11 08:42:41;;;;;;;153.73;36.83;;;0.10;99.90;;;;;;5113900;28;20240;-79
2021/12/11 08:45:20;;;;;;;100.57;33.27;;;0.20;99.90;;;;;;5114135;28;20190;-79
2021/12/11 08:47:52;;;;;;;108.33;36.03;;;0.30;99.90;;;;;;5114328;28;20182;-78
2021/12/11 08:50:21;;;;;;;153.23;36.87;;;0.40;99.90;;;;;;5126880;27;20182;-79
2021/12/11 08:52:51;;;;;;;129.77;35.73;;;0.40;99.90;;;;;;5123525;27;20652;-79
2021/12/11 08:55:24;;;;;;;105.43;33.20;;;0.50;99.90;;;;;;5113596;28;20194;-79
2021/12/11 08:57:52;;;;;;;125.97;35.63;;;0.50;99.90;;;;;;5117576;27;20581;-79
2021/12/11 09:00:25;;;;;;;115.83;34.10;;;0.40;99.90;;;;;;5130744;27;20193;-79
2021/12/11 09:02:58;;;;;;;95.60;30.57;;;0.40;99.90;;;;;;5115286;27;20198;-79
2021/12/11 09:05:32;;;;;;;114.13;31.10;;;0.40;99.90;;;;;;5126024;27;20182;-79
2021/12/11 09:08:02;;;;;;;104.50;34.87;;;0.40;99.90;;;;;;5134927;27;20680;-79
2021/12/11 09:10:33;;;;;;;103.23;34.07;;;0.40;99.90;;;;;;5134935;27;20646;-79
2021/12/11 09:13:04;;;;;;;113.33;34.30;;;0.50;99.90;;;;;;5135443;27;20217;-79
2021/12/11 09:15:38;;;;;;;106.77;35.90;;;0.50;99.90;;;;;;5134801;27;20704;-79
2021/12/11 09:18:27;;;;;;;126.47;33.30;;;0.50;99.90;;;;;;5134731;27;20182;-79
2021/12/11 09:20:58;;;;;;;147.10;40.63;;;0.50;99.90;;;;;;5130186;27;20218;-79
2021/12/11 09:23:28;;;;;;;128.90;33.10;;;0.50;99.90;;;;;;5113295;27;20199;-79
2021/12/11 09:25:58;;;;;;;120.93;34.13;;;0.40;99.90;;;;;;5122836;27;20205;-82
2021/12/11 09:28:30;;;;;;;134.73;37.17;;;0.40;99.90;;;;;;5125888;27;20175;-79
2021/12/11 09:31:02;;;;;;;126.47;31.17;;;0.50;99.90;;;;;;5121562;27;20243;-79
2021/12/11 09:33:37;;;;;;;120.17;34.77;;;0.50;99.90;;;;;;5122163;27;20731;-78
2021/12/11 09:36:08;;;;;;;132.50;31.43;;;0.50;99.90;;;;;;5114786;27;20174;-78
2021/12/11 09:38:38;;;;;;;103.20;30.87;;;0.40;99.90;;;;;;5112909;28;20585;-79
2021/12/11 09:41:24;;;;;;;128.20;33.30;;;0.40;99.90;;;;;;5113135;28;20278;-80
2021/12/11 09:43:59;;;;;;;104.23;31.23;;;0.40;99.90;;;;;;5112775;28;20229;-80
2021/12/11 09:46:30;;;;;;;136.73;32.40;;;0.40;99.90;;;;;;5112791;28;20209;-80
2021/12/11 09:49:01;;;;;;;152.10;37.90;;;0.40;99.90;;;;;;5112366;28;20240;-80
2021/12/11 09:51:36;;;;;;;155.17;41.77;;;0.30;99.90;;;;;;5113556;28;20266;-78
2021/12/11 09:54:07;;;;;;;133.73;37.60;;;0.40;99.90;;;;;;5112840;28;20634;-79
2021/12/11 09:56:37;;;;;;;101.83;31.23;;;0.50;99.90;;;;;;5113042;28;20183;-78
2021/12/11 09:59:09;;;;;;;134.53;33.70;;;0.60;99.90;;;;;;5112588;28;20240;-79
2021/12/11 10:01:39;;;;;;;213.23;36.03;;;0.60;99.90;;;;;;5112739;28;20587;-80
2021/12/11 10:04:11;;;;;;;142.60;35.77;;;0.70;99.90;;;;;;5113089;28;20182;-79
2021/12/11 10:06:51;;;;;;;161.53;38.33;;;0.70;99.90;;;;;;5113021;28;20178;-79
2021/12/11 10:09:22;;;;;;;189.10;47.17;;;0.70;99.90;;;;;;5113082;28;20611;-80
2021/12/11 10:11:56;;;;;;;157.57;54.13;;;0.70;99.90;;;;;;5112865;28;20189;-80
2021/12/11 10:14:31;;;;;;;176.90;56.27;;;0.70;99.90;;;;;;5111894;28;20201;-78
2021/12/11 10:17:06;;;;;;;168.90;55.90;;;0.80;99.90;;;;;;5112240;28;20620;-78
2021/12/11 10:19:37;;;;;;;158.50;41.23;;;0.90;99.90;;;;;;5113221;28;20206;-79
2021/12/11 10:22:12;;;;;;;140.97;36.17;;;0.90;99.90;;;;;;5112587;28;20269;-79
2021/12/11 10:24:44;;;;;;;151.70;41.90;;;0.90;99.90;;;;;;5112570;28;20190;-80
2021/12/11 10:27:18;;;;;;;150.30;43.57;;;0.90;99.90;;;;;;5112636;28;20284;-79
2021/12/11 10:29:46;;;;;;;181.70;46.57;;;0.80;99.90;;;;;;5112440;28;20218;-79
2021/12/11 10:32:27;;;;;;;171.60;46.13;;;0.70;99.90;;;;;;5112273;28;20239;-78
2021/12/11 10:35:03;;;;;;;178.37;36.10;;;0.80;99.90;;;;;;5112327;28;20207;-78
2021/12/11 10:37:40;;;;;;;157.63;35.70;;;0.80;99.90;;;;;;5112590;28;20265;-80
2021/12/11 10:40:14;;;;;;;176.30;36.47;;;0.80;99.90;;;;;;5112574;28;20225;-80
2021/12/11 10:42:43;;;;;;;194.00;37.60;;;0.80;99.90;;;;;;5112548;28;20187;-80
2021/12/11 10:45:14;;;;;;;142.93;43.57;;;0.90;99.90;;;;;;5111947;28;20219;-80
2021/12/11 10:48:02;;;;;;;163.90;36.10;;;0.90;99.90;;;;;;5116075;28;20175;-85
2021/12/11 10:54:20;;;;;;;156.80;41.33;;;0.90;99.90;;;;;;5134160;28;20209;-80
2021/12/11 11:03:50;;;;;;;151.97;35.63;;;0.70;99.90;;;;;;5116823;28;20214;-80
2021/12/11 11:06:18;;;;;;;144.83;43.10;;;0.60;99.90;;;;;;5119814;27;20635;-79
2021/12/11 11:08:46;;;;;;;161.17;37.83;;;0.70;99.90;;;;;;5115761;28;20239;-80
2021/12/11 11:11:17;;;;;;;143.57;33.97;;;0.70;99.90;;;;;;5115629;28;20202;-79
2021/12/11 11:13:45;;;;;;;148.60;37.30;;;0.70;99.90;;;;;;5115554;28;20293;-80
2021/12/11 11:16:14;;;;;;;141.03;35.23;;;0.70;99.90;;;;;;5115294;28;20277;-79
2021/12/11 11:18:41;;;;;;;178.23;37.47;;;0.70;99.90;;;;;;5115953;28;20191;-79
2021/12/11 11:21:13;;;;;;;252.90;82.77;;;0.70;99.90;;;;;;5115448;28;20190;-79
2021/12/11 11:23:42;;;;;;;202.70;42.73;;;0.80;99.90;;;;;;5114966;28;20175;-80
2021/12/11 11:26:14;;;;;;;152.97;37.00;;;0.80;99.90;;;;;;5115370;28;20639;-79
2021/12/11 11:28:41;;;;;;;151.53;41.33;;;0.90;99.90;;;;;;5115465;28;20209;-79
2021/12/11 11:31:12;;;;;;;134.50;39.13;;;1.00;99.90;;;;;;5115677;28;20195;-79
2021/12/11 11:33:44;;;;;;;143.00;37.93;;;1.00;99.90;;;;;;5115217;28;20270;-78
2021/12/11 11:36:16;;;;;;;137.37;38.97;;;1.10;99.90;;;;;;5115401;27;20194;-79
2021/12/11 11:38:50;;;;;;;133.70;38.67;;;1.10;99.90;;;;;;5115274;28;20593;-80
2021/12/11 11:41:22;;;;;;;139.57;44.10;;;1.00;99.90;;;;;;5115956;27;20210;-79
2021/12/11 11:43:52;;;;;;;185.90;44.03;;;0.90;99.90;;;;;;5113759;28;20627;-79
2021/12/11 11:46:22;;;;;;;145.27;48.80;;;0.90;99.90;;;;;;5113802;28;20265;-79
2021/12/11 11:48:54;;;;;;;167.77;52.33;;;0.80;99.90;;;;;;5116514;27;20194;-78
2021/12/11 11:51:29;;;;;;;149.77;45.27;;;0.70;99.90;;;;;;5111702;28;20611;-78
2021/12/11 11:54:06;;;;;;;169.57;59.70;;;0.70;99.90;;;;;;5110737;28;20190;-79
2021/12/11 11:56:46;;;;;;;247.57;59.93;;;0.60;99.90;;;;;;5113047;28;20251;-78
2021/12/11 11:59:14;;;;;;;428.67;163.13;;;0.60;99.90;;;;;;5114841;28;20186;-79
2021/12/11 12:01:46;;;;;;;230.70;56.70;;;0.50;99.90;;;;;;5113971;28;20213;-79
2021/12/11 12:04:17;;;;;;;206.67;53.33;;;0.40;99.90;;;;;;5115026;28;20179;-79
2021/12/11 12:06:53;;;;;;;278.93;77.80;;;0.40;99.90;;;;;;5115013;28;20178;-79
2021/12/11 12:09:22;;;;;;;197.67;41.67;;;0.40;99.90;;;;;;5114954;28;20266;-78
2021/12/11 12:11:49;;;;;;;191.43;46.63;;;0.30;99.90;;;;;;5114458;28;20186;-79
2021/12/11 12:14:22;;;;;;;207.63;69.97;;;0.20;99.90;;;;;;5113858;28;20751;-79
2021/12/11 12:16:50;;;;;;;207.73;63.90;;;0.20;99.90;;;;;;5114554;28;20179;-78
2021/12/11 12:19:19;;;;;;;194.70;62.33;;;0.10;99.90;;;;;;5114058;28;20643;-79
2021/12/11 12:21:54;;;;;;;142.37;49.20;;;0.20;99.90;;;;;;5114608;28;20190;-79
2021/12/11 12:24:22;;;;;;;160.33;53.37;;;0.20;99.90;;;;;;5114081;28;20181;-79
2021/12/11 12:26:50;;;;;;;133.97;46.60;;;0.20;99.90;;;;;;5114488;28;20187;-79
2021/12/11 12:29:20;;;;;;;128.17;36.77;;;0.10;99.90;;;;;;5115238;28;20655;-78
2021/12/11 12:31:51;;;;;;;125.53;33.87;;;0.10;99.90;;;;;;5111902;28;20182;-78
2021/12/11 12:34:21;;;;;;;109.13;32.53;;;0.00;99.90;;;;;;5115006;28;20433;-78
2021/12/11 12:36:50;;;;;;;108.47;31.53;;;-0.10;99.90;;;;;;5115476;28;20228;-78
2021/12/11 12:39:21;;;;;;;107.43;30.60;;;-0.10;99.90;;;;;;5116038;28;20202;-79
2021/12/11 12:42:28;;;;;;;142.07;36.90;;;-0.20;99.90;;;;;;5122488;28;20224;-82
2021/12/11 12:49:08;;;;;;;161.43;38.60;;;-0.20;99.90;;;;;;5133281;28;20224;-82
2021/12/11 12:51:40;;;;;;;220.37;55.53;;;-0.30;99.90;;;;;;5057535;28;20174;-85
2021/12/11 12:54:11;;;;;;;203.57;61.97;;;-0.30;99.90;;;;;;5045984;28;20221;-81
2021/12/11 12:56:42;;;;;;;205.33;54.30;;;-0.30;99.90;;;;;;5114722;28;20182;-81
2021/12/11 12:59:12;;;;;;;200.83;55.57;;;-0.30;99.90;;;;;;5114885;28;20228;-79